Latest Weather Observations for Stenhouse Bay

IDS60801

Issued at 9:31 pm CST Saturday 30 May 2015 (issued every 30 minutes, with the page automatically refreshed every 10 minutes)

About weather observations | Map of weather stations | Latest weather observations for SA | Other Formats
Station Details ID: 022049 Name: STENHOUSE BAY Lat: -35.28 Lon: 136.94 Height: 42.0 m
Data from the previous 72 hours. | See also: Recent months at Stenhouse Bay
Date/Time
CST
Temp
°C
App
Temp
°C
Dew
Point
Rel
Hum
%
Delta-T
°C
Wind Press
QNH
hPa
Press
MSL
hPa
Rain
since 9 am
mm
Dir
 
Spd
km/h
Gust
km/h
Spd
kts
Gust
kts
30/09:30pm 12.4 9.7 10.5 88 1.0 WSW 15 20 8 11 1020.0 1020.0 0.4
30/09:00pm 12.3 10.0 10.4 88 1.0 W 13 19 7 10 1020.2 1020.2 0.4
30/08:30pm 13.8 10.4 11.3 85 1.3 WSW 20 28 11 15 1020.4 1020.4 0.4
30/08:00pm 12.3 10.7 10.2 87 1.1 WNW 9 13 5 7 1020.5 1020.5 0.4
30/07:30pm 11.8 9.4 9.9 88 1.0 W 13 17 7 9 1020.4 1020.4 0.4
30/07:00pm 12.0 10.0 10.2 89 0.9 W 11 15 6 8 1020.2 1020.2 0.4
30/06:30pm 12.7 9.3 11.1 90 0.8 SW 20 33 11 18 1020.0 1020.0 0.4
30/06:00pm 13.1 9.9 11.3 89 0.9 W 19 28 10 15 1019.9 1019.9 0.4
30/05:30pm 12.9 10.1 11.3 90 0.8 W 17 22 9 12 1020.0 1020.0 0.4
30/05:00pm 13.4 11.3 9.8 79 1.9 W 11 17 6 9 1020.0 1020.0 0.4
30/04:30pm 14.1 11.3 10.1 77 2.1 W 15 22 8 12 1020.1 1020.1 0.4
30/04:00pm 14.5 9.7 11.7 83 1.5 WSW 28 39 15 21 1020.0 1020.0 0.4
30/03:30pm 15.0 11.6 10.6 75 2.3 W 19 26 10 14 1020.0 1020.0 0.4
30/03:00pm 15.4 11.6 11.2 76 2.2 W 22 33 12 18 1020.0 1020.0 0.4
30/02:30pm 16.1 12.9 11.3 73 2.6 WSW 19 28 10 15 1020.1 1020.1 0.4
30/02:00pm 16.9 12.8 10.1 64 3.6 WSW 22 30 12 16 1020.0 1020.0 0.4
30/01:30pm 16.7 12.4 9.4 62 3.8 W 22 30 12 16 1020.2 1020.2 0.4
30/01:00pm 16.1 12.4 9.5 65 3.4 W 19 28 10 15 1020.4 1020.4 0.4
30/12:30pm 15.5 13.2 11.7 78 2.0 W 15 20 8 11 1020.9 1020.9 0.4
30/12:00pm 14.9 11.8 11.7 81 1.7 WNW 19 28 10 15 1021.5 1021.5 0.4
30/11:30am 16.1 13.7 12.5 79 2.0 WSW 17 30 9 16 1021.8 1021.8 0.4
30/11:00am 13.4 10.2 11.8 90 0.9 WSW 20 37 11 20 1022.3 1022.3 0.4
30/10:30am 14.1 11.1 12.1 88 1.1 WSW 19 28 10 15 1022.6 1022.6 0.2
30/10:00am 15.8 12.4 11.2 74 2.5 W 20 33 11 18 1022.6 1022.6 0.0
30/09:30am 13.9 10.9 11.8 87 1.1 WSW 19 26 10 14 1022.5 1022.5 0.0
30/09:00am 14.2 12.9 12.4 89 1.0 WNW 11 17 6 9 1022.4 1022.4 0.4
30/08:30am 13.1 11.4 12.3 95 0.4 WNW 13 17 7 9 1022.5 1022.5 0.4
30/08:00am 11.6 10.0 11.4 99 0.1 WNW 11 15 6 8 1022.3 1022.3 0.4
30/07:30am 12.0 10.1 11.8 99 0.1 WNW 13 17 7 9 1022.4 1022.4 0.4
30/07:00am 11.8 9.8 11.5 98 0.2 WNW 13 17 7 9 1022.4 1022.4 0.2
30/06:30am 11.5 9.0 10.9 96 0.3 NW 15 19 8 10 1022.3 1022.3 0.2
30/06:00am 12.0 10.2 10.7 92 0.7 WNW 11 15 6 8 1022.3 1022.3 0.0
30/05:30am 12.2 9.5 10.4 89 0.9 WNW 15 19 8 10 1022.2 1022.2 0.0
30/05:00am 12.3 9.3 10.5 89 0.9 NW 17 24 9 13 1022.0 1022.0 0.0
30/04:30am 12.1 9.4 10.5 90 0.8 NW 15 19 8 10 1022.0 1022.0 0.0
30/04:00am 12.1 9.9 10.8 92 0.7 WNW 13 15 7 8 1022.1 1022.1 0.0
30/03:30am 12.1 10.1 10.3 89 0.9 NW 11 17 6 9 1022.3 1022.3 0.0
30/03:00am 12.0 9.3 10.4 90 0.8 WNW 15 20 8 11 1022.5 1022.5 0.0
30/02:30am 12.0 9.7 10.4 90 0.8 WNW 13 19 7 10 1022.5 1022.5 0.0
30/02:00am 11.0 8.6 9.9 93 0.6 NW 13 15 7 8 1022.5 1022.5 0.0
30/01:30am 11.2 8.3 9.6 90 0.8 WNW 15 17 8 9 1022.4 1022.4 0.0
30/01:00am 11.1 8.2 9.5 90 0.8 WNW 15 17 8 9 1022.7 1022.7 0.0
30/12:30am 11.0 8.1 9.6 91 0.7 WNW 15 17 8 9 1022.9 1022.9 0.0
30/12:00am 10.2 7.9 9.0 92 0.6 NW 11 13 6 7 1023.2 1023.2 0.0
 
Date/Time
CST
Temp
°C
App
Temp
°C
Dew
Point
Rel
Hum
%
Delta-T
°C
Wind Press
QNH
hPa
Press
MSL
hPa
Rain
since 9 am
mm
Dir
 
Spd
km/h
Gust
km/h
Spd
kts
Gust
kts
29/11:30pm 11.2 8.7 9.6 90 0.8 WNW 13 15 7 8 1023.5 1023.5 0.0
29/11:00pm 10.5 7.9 9.3 92 0.6 WNW 13 15 7 8 1023.7 1023.7 0.0
29/10:30pm 10.7 8.5 9.5 92 0.6 NW 11 13 6 7 1024.0 1024.0 0.0
29/10:00pm 10.5 7.9 9.3 92 0.6 NW 13 13 7 7 1024.1 1024.1 0.0
29/09:30pm 10.3 8.0 9.1 92 0.6 NW 11 11 6 6 1024.0 1024.0 0.0
29/09:00pm 10.7 8.8 9.0 89 0.8 WNW 9 11 5 6 1024.1 1024.1 0.0
29/08:30pm 11.8 8.9 9.7 87 1.1 WNW 15 22 8 12 1024.0 1024.0 0.0
29/08:00pm 11.7 10.5 9.4 86 1.2 W 6 7 3 4 1023.9 1023.9 0.0
29/07:30pm 12.2 10.6 10.1 87 1.1 WSW 9 13 5 7 1023.7 1023.7 0.0
29/07:00pm 11.6 10.4 9.5 87 1.1 NNW 6 6 3 3 1023.5 1023.5 0.0
29/06:30pm 11.7 10.4 9.1 84 1.3 NNW 6 6 3 3 1023.5 1023.5 0.0
29/06:00pm 11.8 10.4 8.8 82 1.5 NW 6 7 3 4 1023.5 1023.5 0.0
29/05:30pm 12.0 11.0 8.7 80 1.6 NW 4 6 2 3 1023.3 1023.3 0.0
29/05:00pm 13.3 11.4 9.2 76 2.1 NW 9 13 5 7 1023.3 1023.3 0.0
29/04:30pm 13.5 11.8 9.7 78 1.9 W 9 11 5 6 1023.2 1023.2 0.0
29/04:00pm 14.1 12.8 9.9 76 2.2 W 7 11 4 6 1023.2 1023.2 0.0
29/03:30pm 13.9 10.9 9.1 73 2.4 WSW 15 22 8 12 1023.3 1023.3 0.0
29/03:00pm 15.3 12.1 8.3 63 3.5 WSW 15 20 8 11 1022.9 1022.9 0.0
29/02:30pm 15.4 12.8 9.5 68 3.0 WSW 13 22 7 12 1023.0 1023.0 0.0
29/02:00pm 14.5 12.5 10.1 75 2.3 SW 11 15 6 8 1023.2 1023.2 0.0
29/01:30pm 14.3 12.7 10.3 77 2.1 SW 9 13 5 7 1023.3 1023.3 0.0
29/01:00pm 15.1 12.1 9.2 68 3.0 SW 15 20 8 11 1023.4 1023.4 0.0
29/12:30pm 14.6 11.3 9.4 71 2.7 SW 17 22 9 12 1023.5 1023.5 0.0
29/12:00pm 15.1 11.9 10.1 72 2.6 SW 17 22 9 12 1023.7 1023.7 0.0
29/11:30am 15.8 12.5 9.7 67 3.2 WSW 17 22 9 12 1023.9 1023.9 0.0
29/11:00am 14.9 11.8 8.8 67 3.1 WSW 15 20 8 11 1024.1 1024.1 0.0
29/10:30am 14.6 11.5 10.2 75 2.3 SW 17 24 9 13 1024.2 1024.2 0.0
29/10:00am 15.2 13.4 9.3 68 3.0 WSW 9 19 5 10 1024.0 1024.0 0.0
29/09:30am 13.8 11.3 9.8 77 2.1 WSW 13 19 7 10 1023.9 1023.9 0.0
29/09:00am 11.9 9.9 10.1 89 0.9 WNW 11 19 6 10 1023.7 1023.7 3.2
29/08:30am 14.4 11.2 8.6 68 2.9 WSW 15 20 8 11 1023.6 1023.6 3.0
29/08:00am 13.8 10.2 8.4 70 2.7 WSW 17 24 9 13 1023.4 1023.4 3.0
29/07:30am 12.9 9.2 7.8 71 2.5 WSW 17 22 9 12 1023.3 1023.3 3.0
29/07:00am 13.2 9.3 8.7 74 2.3 SW 19 26 10 14 1022.9 1022.9 3.0
29/06:30am 13.2 9.4 7.6 69 2.7 WSW 17 22 9 12 1022.6 1022.6 3.0
29/06:00am 12.3 9.3 7.6 73 2.3 WSW 13 19 7 10 1022.4 1022.4 3.0
29/05:30am 13.3 9.3 8.4 72 2.4 SW 19 26 10 14 1022.2 1022.2 3.0
29/05:00am 13.6 10.2 9.3 75 2.2 WSW 17 28 9 15 1022.2 1022.2 3.0
29/04:30am 13.0 10.2 6.8 66 3.0 W 11 22 6 12 1022.1 1022.1 3.0
29/04:00am 13.5 9.6 7.1 65 3.1 WSW 17 24 9 13 1021.9 1021.9 3.0
29/03:30am 12.8 9.8 7.5 70 2.6 W 13 17 7 9 1021.8 1021.8 3.0
29/03:00am 12.8 9.2 6.8 67 2.9 WSW 15 22 8 12 1021.7 1021.7 3.0
29/02:30am 13.2 8.9 6.8 65 3.1 WSW 19 28 10 15 1021.6 1021.6 3.0
29/02:00am 12.7 8.6 6.3 65 3.0 WSW 17 26 9 14 1021.5 1021.5 3.0
29/01:30am 12.7 9.3 7.8 72 2.4 WSW 15 22 8 12 1021.5 1021.5 3.0
29/01:00am 12.5 8.5 6.8 68 2.7 WSW 17 24 9 13 1021.6 1021.6 3.0
29/12:30am 13.0 8.8 7.5 69 2.7 WSW 19 28 10 15 1021.6 1021.6 3.0
29/12:00am 13.3 8.6 9.2 76 2.1 WSW 24 35 13 19 1021.4 1021.4 3.0
 
Date/Time
CST
Temp
°C
App
Temp
°C
Dew
Point
Rel
Hum
%
Delta-T
°C
Wind Press
QNH
hPa
Press
MSL
hPa
Rain
since 9 am
mm
Dir
 
Spd
km/h
Gust
km/h
Spd
kts
Gust
kts
28/11:30pm 13.5 9.4 8.6 72 2.5 WSW 20 28 11 15 1021.2 1021.2 3.0
28/11:00pm 13.9 9.2 7.9 67 3.0 WSW 22 35 12 19 1021.5 1021.5 3.0
28/10:30pm 13.9 10.2 8.1 68 2.9 WSW 17 26 9 14 1021.5 1021.5 3.0
28/10:00pm 14.1 8.6 7.4 64 3.3 WSW 26 33 14 18 1021.3 1021.3 3.0
28/09:30pm 13.4 9.7 7.8 69 2.8 WSW 17 32 9 17 1021.0 1021.0 3.0
28/09:00pm 13.9 9.2 7.9 67 3.0 WSW 22 33 12 18 1020.7 1020.7 3.0
28/08:30pm 13.7 9.8 8.7 72 2.5 WSW 19 30 10 16 1020.6 1020.6 3.0
28/08:00pm 13.8 9.6 8.4 70 2.7 WSW 20 32 11 17 1020.3 1020.3 3.0
28/07:30pm 13.9 9.1 8.7 71 2.6 WSW 24 35 13 19 1019.8 1019.8 3.0
28/07:00pm 14.4 9.7 9.4 72 2.6 WSW 24 32 13 17 1019.6 1019.6 3.0
28/06:30pm 14.4 9.7 9.4 72 2.6 WSW 24 33 13 18 1019.4 1019.4 3.0
28/06:00pm 14.3 9.6 9.3 72 2.6 WSW 24 35 13 19 1019.1 1019.1 3.0
28/05:30pm 14.1 9.7 10.3 78 2.0 WSW 24 32 13 17 1018.8 1018.8 3.0
28/05:00pm 14.1 9.8 10.7 80 1.8 WSW 24 32 13 17 1018.6 1018.6 3.0
28/04:30pm 14.4 10.2 11.0 80 1.8 WSW 24 37 13 20 1018.1 1018.1 3.0
28/04:00pm 14.3 9.5 11.8 85 1.3 WSW 28 37 15 20 1017.9 1017.9 3.0
28/03:30pm 14.5 10.9 13.2 92 0.7 SW 24 33 13 18 1017.6 1017.6 2.8
28/03:00pm 14.5 10.6 13.4 93 0.6 WSW 26 41 14 22 1017.3 1017.3 2.8
28/02:30pm 14.1 9.9 13.6 97 0.3 WSW 28 41 15 22 1017.3 1017.3 2.8
28/02:00pm 14.4 10.5 13.3 93 0.6 W 26 41 14 22 1017.0 1017.0 2.0
28/01:30pm 17.2 13.8 13.7 80 2.0 WNW 24 33 13 18 1017.1 1017.1 1.8
28/01:00pm 15.8 13.3 14.0 89 1.0 WNW 20 32 11 17 1017.2 1017.2 1.8
28/12:30pm 14.5 12.0 13.4 93 0.6 WNW 19 32 10 17 1017.5 1017.5 1.8
28/12:00pm 15.7 12.7 14.7 94 0.6 NW 24 35 13 19 1017.3 1017.3 0.2
28/11:30am 17.5 14.0 14.6 83 1.7 NW 26 35 14 19 1017.8 1017.8 0.2
28/11:00am 16.3 12.7 14.1 87 1.3 NW 26 39 14 21 1018.2 1018.2 0.2
28/10:30am 15.2 12.9 14.7 97 0.3 NW 20 28 11 15 1018.1 1018.1 0.2
28/10:00am 14.6 11.5 13.3 92 0.7 NW 22 32 12 17 1018.1 1018.1 0.0
28/09:30am 15.3 13.0 14.2 93 0.6 NW 19 30 10 16 1017.9 1017.9 0.0
28/09:00am 14.4 11.4 13.6 95 0.4 NW 22 32 12 17 1018.0 1018.0 0.4
28/08:30am 14.7 11.1 14.2 97 0.3 NW 26 39 14 21 1017.4 1017.4 0.4
28/08:00am 14.3 12.0 14.0 98 0.2 NW 19 24 10 13 1017.4 1017.4 0.4
28/07:30am 13.8 12.0 13.3 97 0.3 NW 15 20 8 11 1017.1 1017.1 0.4
28/07:00am 13.7 11.1 13.1 96 0.3 NW 19 26 10 14 1017.1 1017.1 0.2
28/06:30am 13.7 11.5 13.2 97 0.3 NW 17 24 9 13 1017.2 1017.2 0.2
28/06:00am 13.5 11.6 13.0 97 0.3 NW 15 20 8 11 1016.7 1016.7 0.2
28/05:30am 13.7 11.5 13.2 97 0.3 WNW 17 24 9 13 1016.6 1016.5 0.2
28/05:00am 13.9 11.8 13.7 99 0.1 WNW 17 28 9 15 1016.4 1016.3 0.2
28/04:30am 13.8 12.1 13.6 99 0.1 WNW 15 22 8 12 1016.3 1016.2 0.2
28/04:00am 13.9 11.8 13.7 99 0.1 NW 17 22 9 12 1016.4 1016.3 0.2
28/03:30am 13.9 12.6 13.7 99 0.1 NW 13 20 7 11 1016.5 1016.4 0.2
28/03:00am 13.8 12.9 13.6 99 0.1 NW 11 17 6 9 1016.8 1016.8 0.2
28/02:30am 13.8 12.5 13.6 99 0.1 NW 13 17 7 9 1017.0 1017.0 0.2
28/02:00am 13.8 12.5 13.6 99 0.1 NW 13 15 7 8 1017.0 1017.0 0.2
28/01:30am 13.9 12.2 13.7 99 0.1 NW 15 19 8 10 1017.1 1017.1 0.0
28/01:00am 14.1 12.5 13.9 99 0.1 NW 15 20 8 11 1017.3 1017.3 0.0
28/12:30am 13.9 13.0 13.7 99 0.1 NW 11 15 6 8 1017.1 1017.1 0.0
28/12:00am 14.5 13.8 14.3 99 0.1 NW 11 15 6 8 1017.3 1017.3 0.0
 
Date/Time
CST
Temp
°C
App
Temp
°C
Dew
Point
Rel
Hum
%
Delta-T
°C
Wind Press
QNH
hPa
Press
MSL
hPa
Rain
since 9 am
mm
Dir
 
Spd
km/h
Gust
km/h
Spd
kts
Gust
kts
27/11:30pm 14.2 13.4 14.0 99 0.1 NW 11 13 6 7 1017.5 1017.5 0.0
27/11:00pm 14.1 12.9 13.9 99 0.1 NNW 13 17 7 9 1017.7 1017.7 0.0
27/10:30pm 14.3 13.1 14.1 99 0.1 NNW 13 15 7 8 1017.6 1017.6 0.0
27/10:00pm 14.6 13.2 14.4 99 0.1 NNW 15 19 8 10 1018.0 1018.0 0.0

Other Formats:

Comma delimited format used in spreadsheet applications
http://www.bom.gov.au/fwo/IDS60801/IDS60801.95806.axf

JavaScript Object Notation format (JSON) in row-major order
http://www.bom.gov.au/fwo/IDS60801/IDS60801.95806.json